createdAt,value
2023-11-11T00:00:12.113Z,16.00
2023-11-11T00:02:40.523Z,15.03
2023-11-11T00:05:09.705Z,14.23
2023-11-11T00:07:38.387Z,17.50
2023-11-11T00:10:08.180Z,17.67
2023-11-11T00:12:37.109Z,17.73
2023-11-11T00:15:07.335Z,16.33
2023-11-11T00:17:35.719Z,15.03
2023-11-11T00:20:05.807Z,18.17
2023-11-11T00:22:34.168Z,17.50
2023-11-11T00:25:02.551Z,18.07
2023-11-11T00:27:31.495Z,15.87
2023-11-11T00:30:00.368Z,16.37
2023-11-11T00:32:28.772Z,17.40
2023-11-11T00:34:57.126Z,16.10
2023-11-11T00:37:26.318Z,17.70
2023-11-11T00:39:54.800Z,20.00
2023-11-11T00:42:24.118Z,14.47
2023-11-11T00:44:53.181Z,17.20
2023-11-11T00:47:22.270Z,15.23
2023-11-11T00:49:51.756Z,16.17
2023-11-11T00:52:20.133Z,15.93
2023-11-11T00:54:49.966Z,16.87
2023-11-11T00:57:19.264Z,17.27
2023-11-11T00:59:47.627Z,17.40
2023-11-11T01:02:16.114Z,16.57
2023-11-11T01:04:44.490Z,16.10
2023-11-11T01:07:12.879Z,16.80
2023-11-11T01:09:41.612Z,16.30
2023-11-11T01:12:11.087Z,16.60
2023-11-11T01:14:39.438Z,17.93
2023-11-11T01:17:07.845Z,16.67
2023-11-11T01:19:36.205Z,16.47
2023-11-11T01:22:04.805Z,16.10
2023-11-11T01:24:33.168Z,15.67
2023-11-11T01:27:01.580Z,19.33
2023-11-11T01:29:29.953Z,18.07
2023-11-11T01:31:58.296Z,16.97
2023-11-11T01:34:26.677Z,19.40
2023-11-11T01:36:55.010Z,16.13
2023-11-11T01:39:23.616Z,17.73
2023-11-11T01:41:52.075Z,15.97
2023-11-11T01:44:20.528Z,16.67
2023-11-11T01:46:49.295Z,18.13
2023-11-11T01:49:18.994Z,16.60
2023-11-11T01:51:47.720Z,16.43
2023-11-11T01:54:17.452Z,17.83
2023-11-11T01:56:46.183Z,18.23
2023-11-11T01:59:15.071Z,18.43
2023-11-11T02:01:43.723Z,17.23
2023-11-11T02:04:12.214Z,18.63
2023-11-11T02:06:41.232Z,18.37
2023-11-11T02:09:10.044Z,18.83
2023-11-11T02:11:38.622Z,19.83
2023-11-11T02:14:07.135Z,19.73
2023-11-11T02:16:36.486Z,17.00
2023-11-11T02:19:04.998Z,15.60
2023-11-11T02:21:34.041Z,18.33
2023-11-11T02:24:05.863Z,21.57
2023-11-11T02:26:34.216Z,19.17
2023-11-11T02:29:02.625Z,20.00
2023-11-11T02:31:31.054Z,19.87
2023-11-11T02:33:59.435Z,22.00
2023-11-11T02:36:27.862Z,20.17
2023-11-11T02:38:56.345Z,21.77
2023-11-11T02:41:24.686Z,20.80
2023-11-11T02:43:53.039Z,19.57
2023-11-11T02:46:21.949Z,20.77
2023-11-11T02:48:50.413Z,21.87
2023-11-11T02:51:18.775Z,20.43
2023-11-11T02:53:47.136Z,19.93
2023-11-11T02:56:15.490Z,21.27
2023-11-11T02:58:43.857Z,22.47
2023-11-11T03:01:12.272Z,20.27
2023-11-11T03:03:41.398Z,25.67
2023-11-11T03:06:09.909Z,24.77
2023-11-11T03:08:39.110Z,21.67
2023-11-11T03:11:07.467Z,23.33
2023-11-11T03:13:35.857Z,21.83
2023-11-11T03:16:05.700Z,25.90
2023-11-11T03:18:34.124Z,23.20
2023-11-11T03:21:03.102Z,25.53
2023-11-11T03:23:31.507Z,25.57
2023-11-11T03:26:00.386Z,25.90
2023-11-11T03:28:28.758Z,22.40
2023-11-11T03:30:57.125Z,23.17
2023-11-11T03:33:25.470Z,22.13
2023-11-11T03:35:53.847Z,23.80
2023-11-11T03:38:24.328Z,21.43
2023-11-11T03:40:52.705Z,26.53
2023-11-11T03:43:21.104Z,20.03
2023-11-11T03:45:49.560Z,23.97
2023-11-11T03:48:18.031Z,28.10
2023-11-11T03:50:46.405Z,25.53
2023-11-11T03:53:14.762Z,25.63
2023-11-11T03:55:43.171Z,26.03
2023-11-11T03:58:11.589Z,25.67
2023-11-11T04:00:40.111Z,26.93
2023-11-11T04:03:08.494Z,26.77
2023-11-11T04:05:36.838Z,28.70
2023-11-11T04:08:05.724Z,26.53
2023-11-11T04:10:34.204Z,26.10
2023-11-11T04:13:03.222Z,21.77
2023-11-11T04:15:31.868Z,22.87
2023-11-11T04:18:00.412Z,22.63
2023-11-11T04:20:28.963Z,24.67
2023-11-11T04:22:57.307Z,26.73
2023-11-11T04:25:25.674Z,23.17
2023-11-11T04:27:54.046Z,31.30
2023-11-11T04:30:22.402Z,28.87
2023-11-11T04:32:50.945Z,25.10
2023-11-11T04:35:19.703Z,22.23
2023-11-11T04:37:48.069Z,23.13
2023-11-11T04:40:16.956Z,23.50
2023-11-11T04:42:46.170Z,25.87
2023-11-11T04:45:14.755Z,25.37
2023-11-11T04:47:43.162Z,26.30
2023-11-11T04:50:12.151Z,22.47
2023-11-11T04:52:41.305Z,25.73
2023-11-11T04:55:10.770Z,23.63
2023-11-11T04:57:39.289Z,22.07
2023-11-11T05:00:12.465Z,23.77
2023-11-11T05:02:46.350Z,21.77
2023-11-11T05:05:15.203Z,22.50
2023-11-11T05:07:43.590Z,22.97
2023-11-11T05:10:12.335Z,22.50
2023-11-11T05:12:41.154Z,22.27
2023-11-11T05:15:16.899Z,24.07
2023-11-11T05:17:49.262Z,22.67
2023-11-11T05:20:19.598Z,22.13
2023-11-11T05:22:47.959Z,24.53
2023-11-11T05:25:16.571Z,20.63
2023-11-11T05:27:45.352Z,20.17
2023-11-11T05:30:15.265Z,19.03
2023-11-11T05:32:44.639Z,22.80
2023-11-11T05:35:13.599Z,18.00
2023-11-11T05:37:45.040Z,18.80
2023-11-11T05:40:20.294Z,16.83
2023-11-11T05:42:49.856Z,17.57
2023-11-11T05:45:19.965Z,16.00
2023-11-11T05:47:48.798Z,14.87
2023-11-11T05:50:17.332Z,19.30
2023-11-11T05:52:45.947Z,16.73
2023-11-11T05:55:14.367Z,14.93
2023-11-11T05:57:43.157Z,13.63
2023-11-11T06:00:13.963Z,14.87
2023-11-11T06:02:42.642Z,13.23
2023-11-11T06:05:11.338Z,12.73
2023-11-11T06:07:39.686Z,13.33
2023-11-11T06:10:10.502Z,13.67
2023-11-11T06:12:38.897Z,10.73
2023-11-11T06:15:10.930Z,11.90
2023-11-11T06:17:39.433Z,13.07
2023-11-11T06:20:10.591Z,11.47
2023-11-11T06:22:39.040Z,12.07
2023-11-11T06:25:09.846Z,11.47
2023-11-11T06:27:38.420Z,9.20
2023-11-11T06:30:11.329Z,9.07
2023-11-11T06:32:40.576Z,7.47
2023-11-11T06:35:10.905Z,10.20
2023-11-11T06:37:39.274Z,9.67
2023-11-11T06:40:11.866Z,8.83
2023-11-11T06:42:41.675Z,10.77
2023-11-11T06:45:11.033Z,8.80
2023-11-11T06:47:39.551Z,9.03
2023-11-11T06:50:09.666Z,6.33
2023-11-11T06:52:38.147Z,6.77
2023-11-11T06:55:09.178Z,7.90
2023-11-11T06:57:37.531Z,5.87
2023-11-11T07:00:11.199Z,5.77
2023-11-11T07:02:40.156Z,6.27
2023-11-11T07:05:12.440Z,5.33
2023-11-11T07:07:42.499Z,5.87
2023-11-11T07:10:13.610Z,5.07
2023-11-11T07:12:42.106Z,4.43
2023-11-11T07:15:13.034Z,5.07
2023-11-11T07:17:43.891Z,8.10
2023-11-11T07:20:24.288Z,4.70
2023-11-11T07:22:57.393Z,3.00
2023-11-11T07:25:26.315Z,6.07
2023-11-11T07:27:54.810Z,4.27
2023-11-11T07:30:23.351Z,5.33
2023-11-11T07:32:59.515Z,4.30
2023-11-11T07:35:30.744Z,4.13
2023-11-11T07:37:59.278Z,3.83
2023-11-11T07:40:27.618Z,5.37
2023-11-11T07:42:58.175Z,4.77
2023-11-11T07:45:28.468Z,3.47
2023-11-11T07:47:57.112Z,2.63
2023-11-11T07:50:25.573Z,3.37
2023-11-11T07:52:57.334Z,3.50
2023-11-11T07:55:25.902Z,4.60
2023-11-11T08:00:26.664Z,2.13
2023-11-11T08:02:55.549Z,3.67
2023-11-11T08:05:25.795Z,3.87
2023-11-11T08:07:57.749Z,3.30
2023-11-11T08:10:28.473Z,4.10
2023-11-11T08:12:57.535Z,1.73
2023-11-11T08:15:25.997Z,1.73
2023-11-11T08:17:54.440Z,4.53
2023-11-11T08:20:23.459Z,3.67
2023-11-11T08:22:52.231Z,2.40
2023-11-11T08:25:23.963Z,2.27
2023-11-11T08:27:53.336Z,1.90
2023-11-11T08:30:24.228Z,1.63
2023-11-11T08:32:52.653Z,3.20
2023-11-11T08:35:21.494Z,1.20
2023-11-11T08:37:50.251Z,3.20
2023-11-11T08:40:19.741Z,1.57
2023-11-11T08:42:48.751Z,1.63
2023-11-11T08:45:17.150Z,2.60
2023-11-11T08:47:47.230Z,1.90
2023-11-11T08:50:15.725Z,0.77
2023-11-11T08:52:44.336Z,4.03
2023-11-11T08:55:14.247Z,2.83
2023-11-11T08:57:43.123Z,2.50
2023-11-11T09:00:14.465Z,4.10
2023-11-11T09:02:42.856Z,2.03
2023-11-11T09:05:11.928Z,3.53
2023-11-11T09:07:40.308Z,2.17
2023-11-11T09:10:09.523Z,1.73
2023-11-11T09:12:39.513Z,3.13
2023-11-11T09:15:08.191Z,1.33
2023-11-11T09:17:37.752Z,1.13
2023-11-11T09:20:11.406Z,2.13
2023-11-11T09:22:40.138Z,2.63
2023-11-11T09:25:11.505Z,1.37
2023-11-11T09:27:39.938Z,2.20
2023-11-11T09:30:11.224Z,2.43
2023-11-11T09:32:39.668Z,1.00
2023-11-11T09:35:09.443Z,2.20
2023-11-11T09:37:38.608Z,1.73
2023-11-11T09:40:12.191Z,2.20
2023-11-11T09:42:40.748Z,2.00
2023-11-11T09:47:46.596Z,0.90
2023-11-11T09:50:17.120Z,2.40
2023-11-11T09:52:47.983Z,0.93
2023-11-11T09:55:18.643Z,1.03
2023-11-11T09:57:50.595Z,1.10
2023-11-11T10:00:19.345Z,0.60
2023-11-11T10:02:47.806Z,1.60
2023-11-11T10:05:17.286Z,1.03
2023-11-11T10:07:45.921Z,0.70
2023-11-11T10:10:14.636Z,1.63
2023-11-11T10:12:43.119Z,1.43
2023-11-11T10:15:13.102Z,1.07
2023-11-11T10:17:43.464Z,2.50
2023-11-11T10:20:18.760Z,1.80
2023-11-11T10:22:50.196Z,0.73
2023-11-11T10:25:21.166Z,1.47
2023-11-11T10:27:56.114Z,1.70
2023-11-11T10:30:27.806Z,2.30
2023-11-11T10:32:59.360Z,1.10
2023-11-11T10:35:27.936Z,1.67
2023-11-11T10:37:56.915Z,2.73
2023-11-11T10:40:25.379Z,2.10
2023-11-11T10:42:53.836Z,1.43
2023-11-11T10:45:22.433Z,1.10
2023-11-11T10:47:50.936Z,1.70
2023-11-11T10:50:20.337Z,1.07
2023-11-11T10:52:50.169Z,1.23
2023-11-11T10:55:18.718Z,1.03
2023-11-11T10:57:48.492Z,0.77
2023-11-11T11:00:22.980Z,2.77
2023-11-11T11:02:56.672Z,1.33
2023-11-11T11:05:51.382Z,1.93
2023-11-11T11:08:44.616Z,0.80
2023-11-11T11:11:32.475Z,1.00
2023-11-11T11:14:30.416Z,0.70
2023-11-11T11:17:02.667Z,1.73
2023-11-11T11:19:32.449Z,0.70
2023-11-11T11:22:01.522Z,1.10
2023-11-11T11:24:29.969Z,2.00
2023-11-11T11:26:58.404Z,0.80
2023-11-11T11:29:27.890Z,0.70
2023-11-11T11:32:12.545Z,0.73
2023-11-11T11:34:44.934Z,0.73
2023-11-11T11:37:15.522Z,1.93
2023-11-11T11:40:10.979Z,1.63
2023-11-11T11:42:41.879Z,1.00
2023-11-11T11:45:11.506Z,1.23
2023-11-11T11:47:40.165Z,1.13
2023-11-11T11:50:09.536Z,1.70
2023-11-11T11:52:39.369Z,1.33
2023-11-11T11:55:08.103Z,1.67
2023-11-11T11:57:36.627Z,1.30
2023-11-11T12:00:16.216Z,5.83
2023-11-11T12:02:45.158Z,1.30
2023-11-11T12:05:14.876Z,1.70
2023-11-11T12:07:51.060Z,1.30
2023-11-11T12:10:20.453Z,3.33
2023-11-11T12:12:49.658Z,1.43
2023-11-11T12:15:19.060Z,1.40
2023-11-11T12:17:49.413Z,0.90
2023-11-11T12:20:19.923Z,1.53
2023-11-11T12:22:49.769Z,1.77
2023-11-11T12:25:18.293Z,1.03
2023-11-11T12:27:46.805Z,1.17
2023-11-11T12:30:24.284Z,0.80
2023-11-11T12:33:08.304Z,1.23
2023-11-11T12:35:43.128Z,1.60
2023-11-11T12:38:48.343Z,0.90
2023-11-11T12:41:16.890Z,1.33
2023-11-11T12:43:45.414Z,2.97
2023-11-11T12:46:18.165Z,0.70
2023-11-11T12:48:46.621Z,3.30
2023-11-11T12:51:31.642Z,1.00
2023-11-11T12:54:00.222Z,3.07
2023-11-11T12:56:28.701Z,3.27
2023-11-11T12:59:12.393Z,1.07
2023-11-11T13:01:41.031Z,1.67
2023-11-11T13:04:15.623Z,1.73
2023-11-11T13:06:44.999Z,3.03
2023-11-11T13:09:21.367Z,2.27
2023-11-11T13:11:51.746Z,1.23
2023-11-11T13:14:21.107Z,0.97
2023-11-11T13:16:52.010Z,2.40
2023-11-11T13:19:21.170Z,1.83
2023-11-11T13:21:49.914Z,2.33
2023-11-11T13:24:18.341Z,1.80
2023-11-11T13:26:48.012Z,2.43
2023-11-11T13:29:16.993Z,1.63
2023-11-11T13:31:48.599Z,1.90
2023-11-11T13:34:20.005Z,2.50
2023-11-11T13:36:48.410Z,1.40
2023-11-11T13:39:33.483Z,2.13
2023-11-11T13:42:01.935Z,2.60
2023-11-11T13:44:30.358Z,1.73
2023-11-11T13:46:58.739Z,1.83
2023-11-11T13:49:27.232Z,2.03
2023-11-11T13:51:56.621Z,2.87
2023-11-11T13:54:25.035Z,2.63
2023-11-11T13:56:53.609Z,2.67
2023-11-11T13:59:21.947Z,1.77
2023-11-11T14:01:50.593Z,1.77
2023-11-11T14:04:19.598Z,1.50
2023-11-11T14:06:48.011Z,2.70
2023-11-11T14:09:18.200Z,4.87
2023-11-11T14:11:47.790Z,2.47
2023-11-11T14:14:16.698Z,1.90
2023-11-11T14:16:46.489Z,3.77
2023-11-11T14:19:18.099Z,3.37
2023-11-11T14:21:46.655Z,1.37
2023-11-11T14:24:15.225Z,3.07
2023-11-11T14:26:47.092Z,1.37
2023-11-11T14:29:16.909Z,3.67
2023-11-11T14:31:45.575Z,3.90
2023-11-11T14:34:16.872Z,2.40
2023-11-11T14:36:45.446Z,3.27
2023-11-11T14:39:15.781Z,1.67
2023-11-11T14:41:44.117Z,1.70
2023-11-11T14:44:13.634Z,1.70
2023-11-11T14:46:44.897Z,3.67
2023-11-11T14:49:16.493Z,3.83
2023-11-11T14:51:45.151Z,4.33
2023-11-11T14:54:15.147Z,2.17
2023-11-11T14:56:43.759Z,4.60
2023-11-11T14:59:12.376Z,2.70
2023-11-11T15:01:41.498Z,1.57
2023-11-11T15:04:11.116Z,2.27
2023-11-11T15:06:40.542Z,1.90
2023-11-11T15:09:09.058Z,7.67
2023-11-11T15:11:37.506Z,10.20
2023-11-11T15:14:06.680Z,2.93
2023-11-11T15:16:36.523Z,2.20
2023-11-11T15:19:05.254Z,2.47
2023-11-11T15:21:33.830Z,3.47
2023-11-11T15:24:04.403Z,3.73
2023-11-11T15:26:33.016Z,3.43
2023-11-11T15:29:01.934Z,3.00
2023-11-11T15:31:31.051Z,2.53
2023-11-11T15:34:00.741Z,3.30
2023-11-11T15:36:29.373Z,2.57
2023-11-11T15:38:58.776Z,2.80
2023-11-11T15:41:27.569Z,5.00
2023-11-11T15:43:56.214Z,24.67
2023-11-11T15:46:28.067Z,4.30
2023-11-11T15:48:56.507Z,3.63
2023-11-11T15:51:24.978Z,2.50
2023-11-11T15:53:55.684Z,3.57
2023-11-11T15:56:24.295Z,5.03
2023-11-11T15:58:54.045Z,4.90
2023-11-11T16:01:23.464Z,4.87
2023-11-11T16:03:52.704Z,4.47
2023-11-11T16:06:23.022Z,4.67
2023-11-11T16:08:52.523Z,4.00
2023-11-11T16:11:21.110Z,3.47
2023-11-11T16:13:50.336Z,5.20
2023-11-11T16:16:20.224Z,3.70
2023-11-11T16:18:50.798Z,3.80
2023-11-11T16:21:24.750Z,4.83
2023-11-11T16:24:16.435Z,5.07
2023-11-11T16:26:51.820Z,2.17
2023-11-11T16:29:20.427Z,2.03
2023-11-11T16:31:48.994Z,1.93
2023-11-11T16:34:22.814Z,3.33
2023-11-11T16:36:52.446Z,3.43
2023-11-11T16:39:21.865Z,3.80
2023-11-11T16:41:53.425Z,4.80
2023-11-11T16:44:23.689Z,2.10
2023-11-11T16:46:52.138Z,1.87
2023-11-11T16:49:23.719Z,2.43
2023-11-11T16:51:52.384Z,2.30
2023-11-11T16:54:20.710Z,3.80
2023-11-11T16:56:49.250Z,4.77
2023-11-11T16:59:17.953Z,2.03
2023-11-11T17:01:46.335Z,2.50
2023-11-11T17:04:16.271Z,2.43
2023-11-11T17:06:44.707Z,4.13
2023-11-11T17:09:16.054Z,3.30
2023-11-11T17:11:49.602Z,2.30
2023-11-11T17:14:18.805Z,3.13
2023-11-11T17:16:47.391Z,3.30
2023-11-11T17:19:15.842Z,6.20
2023-11-11T17:21:44.195Z,3.07
2023-11-11T17:24:12.904Z,1.60
2023-11-11T17:26:43.169Z,1.80
2023-11-11T17:29:11.911Z,2.87
2023-11-11T17:31:40.649Z,3.50
2023-11-11T17:34:09.347Z,2.80
2023-11-11T17:36:39.525Z,4.20
2023-11-11T17:39:11.055Z,3.17
2023-11-11T17:41:40.032Z,2.30
2023-11-11T17:44:10.558Z,3.83
2023-11-11T17:46:39.185Z,2.67
2023-11-11T17:49:10.652Z,2.93
2023-11-11T17:51:39.653Z,2.37
2023-11-11T17:54:08.571Z,1.77
2023-11-11T17:56:37.444Z,3.13
2023-11-11T17:59:06.024Z,3.83
2023-11-11T18:01:39.978Z,4.50
2023-11-11T18:04:09.658Z,8.03
2023-11-11T18:06:46.518Z,14.20
2023-11-11T18:09:15.174Z,8.40
2023-11-11T18:11:44.867Z,6.60
2023-11-11T18:14:13.693Z,2.97
2023-11-11T18:16:43.465Z,2.50
2023-11-11T18:19:12.308Z,2.37
2023-11-11T18:21:41.318Z,2.63
2023-11-11T18:24:11.061Z,2.70
2023-11-11T18:26:40.305Z,2.30
2023-11-11T18:29:10.580Z,3.97
2023-11-11T18:31:39.358Z,4.03
2023-11-11T18:34:08.566Z,3.73
2023-11-11T18:36:37.394Z,2.53
2023-11-11T18:39:06.173Z,2.73
2023-11-11T18:41:34.794Z,5.63
2023-11-11T18:44:03.234Z,6.97
2023-11-11T18:46:32.004Z,6.10
2023-11-11T18:49:00.696Z,11.93
2023-11-11T18:51:29.418Z,4.57
2023-11-11T18:53:57.856Z,4.60
2023-11-11T18:56:30.214Z,3.27
2023-11-11T18:58:58.804Z,3.17
2023-11-11T19:01:27.543Z,4.27
2023-11-11T19:03:56.149Z,3.27
2023-11-11T19:06:26.940Z,2.97
2023-11-11T19:08:55.396Z,8.73
2023-11-11T19:11:25.401Z,3.50
2023-11-11T19:13:53.950Z,3.23
2023-11-11T19:16:22.576Z,3.63
2023-11-11T19:18:52.373Z,4.57
2023-11-11T19:21:21.707Z,4.20
2023-11-11T19:23:50.385Z,3.13
2023-11-11T19:26:25.948Z,4.00
2023-11-11T19:28:55.816Z,6.43
2023-11-11T19:31:24.638Z,3.03
2023-11-11T19:33:53.306Z,2.50
2023-11-11T19:36:25.000Z,6.53
2023-11-11T19:38:54.638Z,2.83
2023-11-11T19:41:23.594Z,3.40
2023-11-11T19:43:52.476Z,5.17
2023-11-11T19:46:25.915Z,4.43
2023-11-11T19:48:54.523Z,5.20
2023-11-11T19:51:29.152Z,4.23
2023-11-11T19:54:00.440Z,6.07
2023-11-11T19:56:32.805Z,4.20
2023-11-11T19:59:01.629Z,5.07
2023-11-11T20:01:30.825Z,8.17
2023-11-11T20:03:59.536Z,4.90
2023-11-11T20:06:28.107Z,5.17
2023-11-11T20:08:56.745Z,7.03
2023-11-11T20:11:25.845Z,7.20
2023-11-11T20:13:56.164Z,4.43
2023-11-11T20:16:25.226Z,4.47
2023-11-11T20:18:54.135Z,5.93
2023-11-11T20:21:23.157Z,4.63
2023-11-11T20:23:52.895Z,5.40
2023-11-11T20:26:34.871Z,8.70
2023-11-11T20:29:06.586Z,5.83
2023-11-11T20:31:35.385Z,3.93
2023-11-11T20:34:03.768Z,3.80
2023-11-11T20:36:32.412Z,7.97
2023-11-11T20:39:00.900Z,4.30
2023-11-11T20:41:29.283Z,6.67
2023-11-11T20:43:57.983Z,5.67
2023-11-11T20:46:29.158Z,5.57
2023-11-11T20:48:57.863Z,5.73
2023-11-11T20:51:26.459Z,4.87
2023-11-11T20:53:55.430Z,4.63
2023-11-11T20:56:24.102Z,2.27
2023-11-11T20:58:53.093Z,3.90
2023-11-11T21:01:22.348Z,3.23
2023-11-11T21:03:51.028Z,6.07
2023-11-11T21:06:19.934Z,6.17
2023-11-11T21:08:51.212Z,4.03
2023-11-11T21:11:19.687Z,5.83
2023-11-11T21:13:48.441Z,6.97
2023-11-11T21:16:18.345Z,3.33
2023-11-11T21:18:48.175Z,4.13
2023-11-11T21:21:20.264Z,6.23
2023-11-11T21:24:12.159Z,5.17
2023-11-11T21:26:52.277Z,7.90
2023-11-11T21:29:23.882Z,7.03
2023-11-11T21:31:52.719Z,5.27
2023-11-11T21:34:22.532Z,7.80
2023-11-11T21:36:55.247Z,4.87
2023-11-11T21:39:23.790Z,5.10
2023-11-11T21:41:52.705Z,4.67
2023-11-11T21:44:21.408Z,6.60
2023-11-11T21:46:51.183Z,2.57
2023-11-11T21:49:21.406Z,3.33
2023-11-11T21:51:50.210Z,4.63
2023-11-11T21:54:19.817Z,5.53
2023-11-11T21:56:48.541Z,6.13
2023-11-11T21:59:17.051Z,5.43
2023-11-11T22:01:46.094Z,6.07
2023-11-11T22:04:16.251Z,5.90
2023-11-11T22:06:44.733Z,6.90
2023-11-11T22:09:14.132Z,11.20
2023-11-11T22:11:42.799Z,5.43
2023-11-11T22:14:11.516Z,5.03
2023-11-11T22:16:40.225Z,10.73
2023-11-11T22:19:08.920Z,5.10
2023-11-11T22:21:37.616Z,5.90
2023-11-11T22:24:06.692Z,5.03
2023-11-11T22:26:35.244Z,7.50
2023-11-11T22:29:03.753Z,9.07
2023-11-11T22:31:35.471Z,3.73
2023-11-11T22:34:06.905Z,7.90
2023-11-11T22:36:35.339Z,8.77
2023-11-11T22:39:06.481Z,7.80
2023-11-11T22:41:34.966Z,6.77
2023-11-11T22:44:03.652Z,4.93
2023-11-11T22:46:34.981Z,7.30
2023-11-11T22:49:03.617Z,9.77
2023-11-11T22:51:32.328Z,11.03
2023-11-11T22:54:01.540Z,6.37
2023-11-11T22:56:30.351Z,5.90
2023-11-11T22:59:00.025Z,9.57
2023-11-11T23:01:34.073Z,7.90
2023-11-11T23:04:03.640Z,6.47
2023-11-11T23:06:33.668Z,10.37
2023-11-11T23:09:03.285Z,7.73
2023-11-11T23:11:31.848Z,9.90
2023-11-11T23:14:00.725Z,8.33
2023-11-11T23:16:30.492Z,9.23
2023-11-11T23:18:59.208Z,8.60
2023-11-11T23:21:28.529Z,7.77
2023-11-11T23:23:56.908Z,10.17
2023-11-11T23:26:26.423Z,9.90
2023-11-11T23:28:54.851Z,7.77
2023-11-11T23:31:23.249Z,7.17
2023-11-11T23:33:51.921Z,7.90
2023-11-11T23:36:21.957Z,9.87
2023-11-11T23:38:50.318Z,7.30
2023-11-11T23:41:18.729Z,9.80
2023-11-11T23:43:47.181Z,7.30
2023-11-11T23:46:15.630Z,7.53
2023-11-11T23:48:44.845Z,13.63
2023-11-11T23:51:13.280Z,8.87
2023-11-11T23:53:41.688Z,10.97
2023-11-11T23:56:11.321Z,10.70
2023-11-11T23:58:39.697Z,8.97
